sensor_id;sensor_type;location;lat;lon;timestamp;P1;durP1;ratioP1;P2;durP2;ratioP2
10731;SDS011;5417;42.686;23.244;2023-01-25T00:02:08;5.80;;;5.17;;
10731;SDS011;5417;42.686;23.244;2023-01-25T00:04:36;5.80;;;5.20;;
10731;SDS011;5417;42.686;23.244;2023-01-25T00:07:03;6.63;;;5.37;;
10731;SDS011;5417;42.686;23.244;2023-01-25T00:09:30;5.13;;;4.73;;
10731;SDS011;5417;42.686;23.244;2023-01-25T00:11:57;5.47;;;4.47;;
10731;SDS011;5417;42.686;23.244;2023-01-25T00:14:24;5.60;;;4.97;;
10731;SDS011;5417;42.686;23.244;2023-01-25T00:19:21;7.00;;;5.07;;
10731;SDS011;5417;42.686;23.244;2023-01-25T00:21:50;4.90;;;4.50;;
10731;SDS011;5417;42.686;23.244;2023-01-25T00:24:17;6.60;;;3.90;;
10731;SDS011;5417;42.686;23.244;2023-01-25T00:26:47;4.33;;;3.93;;
10731;SDS011;5417;42.686;23.244;2023-01-25T00:29:18;3.50;;;3.30;;
10731;SDS011;5417;42.686;23.244;2023-01-25T00:32:02;3.37;;;3.07;;
10731;SDS011;5417;42.686;23.244;2023-01-25T00:34:53;3.90;;;3.53;;
10731;SDS011;5417;42.686;23.244;2023-01-25T00:37:27;3.90;;;3.40;;
10731;SDS011;5417;42.686;23.244;2023-01-25T00:40:04;3.37;;;3.07;;
10731;SDS011;5417;42.686;23.244;2023-01-25T00:42:32;3.30;;;3.10;;
10731;SDS011;5417;42.686;23.244;2023-01-25T00:44:59;3.60;;;3.30;;
10731;SDS011;5417;42.686;23.244;2023-01-25T00:47:27;3.43;;;3.13;;
10731;SDS011;5417;42.686;23.244;2023-01-25T00:49:56;3.40;;;3.20;;
10731;SDS011;5417;42.686;23.244;2023-01-25T00:52:24;3.43;;;3.23;;
10731;SDS011;5417;42.686;23.244;2023-01-25T00:54:55;3.00;;;2.80;;
10731;SDS011;5417;42.686;23.244;2023-01-25T00:57:22;3.37;;;3.07;;
10731;SDS011;5417;42.686;23.244;2023-01-25T00:59:49;3.40;;;3.20;;
10731;SDS011;5417;42.686;23.244;2023-01-25T01:02:18;3.50;;;3.20;;
10731;SDS011;5417;42.686;23.244;2023-01-25T01:04:45;3.20;;;3.00;;
10731;SDS011;5417;42.686;23.244;2023-01-25T01:07:12;3.20;;;3.00;;
10731;SDS011;5417;42.686;23.244;2023-01-25T01:09:44;4.10;;;3.30;;
10731;SDS011;5417;42.686;23.244;2023-01-25T01:12:11;4.40;;;4.00;;
10731;SDS011;5417;42.686;23.244;2023-01-25T01:14:38;4.00;;;3.70;;
10731;SDS011;5417;42.686;23.244;2023-01-25T01:17:07;3.67;;;3.40;;
10731;SDS011;5417;42.686;23.244;2023-01-25T01:19:34;3.53;;;3.33;;
10731;SDS011;5417;42.686;23.244;2023-01-25T01:22:01;3.50;;;3.27;;
10731;SDS011;5417;42.686;23.244;2023-01-25T01:24:28;4.07;;;3.67;;
10731;SDS011;5417;42.686;23.244;2023-01-25T01:26:57;3.87;;;3.47;;
10731;SDS011;5417;42.686;23.244;2023-01-25T01:29:24;4.20;;;3.90;;
10731;SDS011;5417;42.686;23.244;2023-01-25T01:31:51;3.90;;;3.60;;
10731;SDS011;5417;42.686;23.244;2023-01-25T01:34:18;4.03;;;3.70;;
10731;SDS011;5417;42.686;23.244;2023-01-25T01:36:45;4.30;;;4.00;;
10731;SDS011;5417;42.686;23.244;2023-01-25T01:39:16;4.63;;;4.23;;
10731;SDS011;5417;42.686;23.244;2023-01-25T01:41:43;4.57;;;4.27;;
10731;SDS011;5417;42.686;23.244;2023-01-25T01:44:14;4.10;;;3.87;;
10731;SDS011;5417;42.686;23.244;2023-01-25T01:46:45;4.30;;;4.00;;
10731;SDS011;5417;42.686;23.244;2023-01-25T01:49:28;4.33;;;4.03;;
10731;SDS011;5417;42.686;23.244;2023-01-25T01:52:05;4.10;;;3.80;;
10731;SDS011;5417;42.686;23.244;2023-01-25T01:54:44;3.97;;;3.67;;
10731;SDS011;5417;42.686;23.244;2023-01-25T01:57:15;3.90;;;3.60;;
10731;SDS011;5417;42.686;23.244;2023-01-25T01:59:47;3.70;;;3.50;;
10731;SDS011;5417;42.686;23.244;2023-01-25T02:02:18;3.20;;;2.97;;
10731;SDS011;5417;42.686;23.244;2023-01-25T02:04:46;3.03;;;2.83;;
10731;SDS011;5417;42.686;23.244;2023-01-25T02:07:16;2.37;;;2.27;;
10731;SDS011;5417;42.686;23.244;2023-01-25T02:09:48;2.50;;;2.30;;
10731;SDS011;5417;42.686;23.244;2023-01-25T02:12:17;2.93;;;2.73;;
10731;SDS011;5417;42.686;23.244;2023-01-25T02:14:48;2.77;;;2.57;;
10731;SDS011;5417;42.686;23.244;2023-01-25T02:17:16;2.77;;;2.57;;
10731;SDS011;5417;42.686;23.244;2023-01-25T02:19:48;2.40;;;2.30;;
10731;SDS011;5417;42.686;23.244;2023-01-25T02:22:25;2.77;;;2.57;;
10731;SDS011;5417;42.686;23.244;2023-01-25T02:25:00;2.63;;;2.50;;
10731;SDS011;5417;42.686;23.244;2023-01-25T02:27:31;2.27;;;2.17;;
10731;SDS011;5417;42.686;23.244;2023-01-25T02:30:02;2.50;;;2.23;;
10731;SDS011;5417;42.686;23.244;2023-01-25T02:32:30;2.47;;;2.37;;
10731;SDS011;5417;42.686;23.244;2023-01-25T02:34:57;2.50;;;2.30;;
10731;SDS011;5417;42.686;23.244;2023-01-25T02:37:24;2.30;;;2.10;;
10731;SDS011;5417;42.686;23.244;2023-01-25T02:39:51;1.97;;;1.87;;
10731;SDS011;5417;42.686;23.244;2023-01-25T02:42:21;2.50;;;2.40;;
10731;SDS011;5417;42.686;23.244;2023-01-25T02:44:48;2.70;;;2.50;;
10731;SDS011;5417;42.686;23.244;2023-01-25T02:47:17;2.47;;;2.27;;
10731;SDS011;5417;42.686;23.244;2023-01-25T02:49:54;2.17;;;2.07;;
10731;SDS011;5417;42.686;23.244;2023-01-25T02:52:23;2.53;;;2.40;;
10731;SDS011;5417;42.686;23.244;2023-01-25T02:54:50;2.47;;;2.33;;
10731;SDS011;5417;42.686;23.244;2023-01-25T02:57:17;2.57;;;2.37;;
10731;SDS011;5417;42.686;23.244;2023-01-25T02:59:49;2.43;;;2.33;;
10731;SDS011;5417;42.686;23.244;2023-01-25T03:02:16;3.20;;;3.00;;
10731;SDS011;5417;42.686;23.244;2023-01-25T03:04:45;2.53;;;2.40;;
10731;SDS011;5417;42.686;23.244;2023-01-25T03:07:12;2.70;;;2.50;;
10731;SDS011;5417;42.686;23.244;2023-01-25T03:09:39;2.50;;;2.30;;
10731;SDS011;5417;42.686;23.244;2023-01-25T03:12:12;2.63;;;2.47;;
10731;SDS011;5417;42.686;23.244;2023-01-25T03:14:39;3.80;;;3.50;;
10731;SDS011;5417;42.686;23.244;2023-01-25T03:17:17;5.03;;;4.47;;
10731;SDS011;5417;42.686;23.244;2023-01-25T03:19:51;2.90;;;2.70;;
10731;SDS011;5417;42.686;23.244;2023-01-25T03:22:19;2.90;;;2.70;;
10731;SDS011;5417;42.686;23.244;2023-01-25T03:24:48;3.23;;;2.93;;
10731;SDS011;5417;42.686;23.244;2023-01-25T03:27:31;3.27;;;3.07;;
10731;SDS011;5417;42.686;23.244;2023-01-25T03:29:58;2.87;;;2.67;;
10731;SDS011;5417;42.686;23.244;2023-01-25T03:32:35;3.23;;;3.03;;
10731;SDS011;5417;42.686;23.244;2023-01-25T03:35:02;3.30;;;3.10;;
10731;SDS011;5417;42.686;23.244;2023-01-25T03:37:29;4.13;;;3.83;;
10731;SDS011;5417;42.686;23.244;2023-01-25T03:39:56;3.70;;;3.40;;
10731;SDS011;5417;42.686;23.244;2023-01-25T03:42:23;3.57;;;3.27;;
10731;SDS011;5417;42.686;23.244;2023-01-25T03:44:50;3.83;;;3.17;;
10731;SDS011;5417;42.686;23.244;2023-01-25T03:47:17;2.93;;;2.73;;
10731;SDS011;5417;42.686;23.244;2023-01-25T03:49:45;3.60;;;3.30;;
10731;SDS011;5417;42.686;23.244;2023-01-25T03:52:12;4.00;;;3.70;;
10731;SDS011;5417;42.686;23.244;2023-01-25T03:54:39;4.50;;;4.10;;
10731;SDS011;5417;42.686;23.244;2023-01-25T03:57:06;4.07;;;3.80;;
10731;SDS011;5417;42.686;23.244;2023-01-25T03:59:33;4.07;;;3.77;;
10731;SDS011;5417;42.686;23.244;2023-01-25T04:02:00;4.60;;;4.20;;
10731;SDS011;5417;42.686;23.244;2023-01-25T04:04:28;4.07;;;3.77;;
10731;SDS011;5417;42.686;23.244;2023-01-25T04:06:57;4.60;;;4.20;;
10731;SDS011;5417;42.686;23.244;2023-01-25T04:09:24;4.87;;;4.50;;
10731;SDS011;5417;42.686;23.244;2023-01-25T04:11:51;4.20;;;3.80;;
10731;SDS011;5417;42.686;23.244;2023-01-25T04:14:18;4.97;;;3.63;;
10731;SDS011;5417;42.686;23.244;2023-01-25T04:16:45;4.07;;;3.77;;
10731;SDS011;5417;42.686;23.244;2023-01-25T04:19:18;4.80;;;3.57;;
10731;SDS011;5417;42.686;23.244;2023-01-25T04:21:51;3.87;;;3.57;;
10731;SDS011;5417;42.686;23.244;2023-01-25T04:26:49;3.90;;;3.50;;
10731;SDS011;5417;42.686;23.244;2023-01-25T04:29:16;3.43;;;3.17;;
10731;SDS011;5417;42.686;23.244;2023-01-25T04:31:43;3.20;;;3.00;;
10731;SDS011;5417;42.686;23.244;2023-01-25T04:34:10;3.20;;;3.00;;
10731;SDS011;5417;42.686;23.244;2023-01-25T04:36:37;3.27;;;2.97;;
10731;SDS011;5417;42.686;23.244;2023-01-25T04:39:04;2.90;;;2.70;;
10731;SDS011;5417;42.686;23.244;2023-01-25T04:41:44;3.47;;;3.27;;
10731;SDS011;5417;42.686;23.244;2023-01-25T04:44:11;3.60;;;3.30;;
10731;SDS011;5417;42.686;23.244;2023-01-25T04:46:47;3.20;;;3.00;;
10731;SDS011;5417;42.686;23.244;2023-01-25T04:49:15;3.80;;;3.50;;
10731;SDS011;5417;42.686;23.244;2023-01-25T04:54:23;4.27;;;3.97;;
10731;SDS011;5417;42.686;23.244;2023-01-25T04:56:51;4.03;;;3.73;;
10731;SDS011;5417;42.686;23.244;2023-01-25T04:59:18;4.20;;;3.90;;
10731;SDS011;5417;42.686;23.244;2023-01-25T05:01:45;7.53;;;4.47;;
10731;SDS011;5417;42.686;23.244;2023-01-25T05:04:12;4.80;;;4.40;;
10731;SDS011;5417;42.686;23.244;2023-01-25T05:06:41;4.80;;;4.40;;
10731;SDS011;5417;42.686;23.244;2023-01-25T05:09:08;7.17;;;4.90;;
10731;SDS011;5417;42.686;23.244;2023-01-25T05:11:35;4.40;;;4.00;;
10731;SDS011;5417;42.686;23.244;2023-01-25T05:14:04;4.70;;;4.30;;
10731;SDS011;5417;42.686;23.244;2023-01-25T05:16:31;4.70;;;4.30;;
10731;SDS011;5417;42.686;23.244;2023-01-25T05:18:58;5.73;;;5.13;;
10731;SDS011;5417;42.686;23.244;2023-01-25T05:21:28;11.03;;;10.03;;
10731;SDS011;5417;42.686;23.244;2023-01-25T05:24:12;6.40;;;5.77;;
10731;SDS011;5417;42.686;23.244;2023-01-25T05:26:40;5.53;;;5.13;;
10731;SDS011;5417;42.686;23.244;2023-01-25T05:29:46;4.70;;;4.33;;
10731;SDS011;5417;42.686;23.244;2023-01-25T05:32:13;5.20;;;4.80;;
10731;SDS011;5417;42.686;23.244;2023-01-25T05:34:41;5.90;;;5.40;;
10731;SDS011;5417;42.686;23.244;2023-01-25T05:37:33;6.33;;;5.77;;
10731;SDS011;5417;42.686;23.244;2023-01-25T05:40:01;6.70;;;5.20;;
10731;SDS011;5417;42.686;23.244;2023-01-25T05:42:28;7.43;;;5.63;;
10731;SDS011;5417;42.686;23.244;2023-01-25T05:44:56;6.30;;;5.73;;
10731;SDS011;5417;42.686;23.244;2023-01-25T05:47:23;8.73;;;6.13;;
10731;SDS011;5417;42.686;23.244;2023-01-25T05:49:50;6.83;;;5.63;;
10731;SDS011;5417;42.686;23.244;2023-01-25T05:52:17;6.60;;;6.00;;
10731;SDS011;5417;42.686;23.244;2023-01-25T05:54:44;6.33;;;5.80;;
10731;SDS011;5417;42.686;23.244;2023-01-25T05:57:12;7.60;;;6.90;;
10731;SDS011;5417;42.686;23.244;2023-01-25T05:59:39;7.50;;;6.50;;
10731;SDS011;5417;42.686;23.244;2023-01-25T06:02:08;6.73;;;5.93;;
10731;SDS011;5417;42.686;23.244;2023-01-25T06:04:35;9.07;;;7.20;;
10731;SDS011;5417;42.686;23.244;2023-01-25T06:07:02;6.43;;;5.83;;
10731;SDS011;5417;42.686;23.244;2023-01-25T06:09:29;4.87;;;4.47;;
10731;SDS011;5417;42.686;23.244;2023-01-25T06:11:56;6.33;;;5.23;;
10731;SDS011;5417;42.686;23.244;2023-01-25T06:14:27;7.03;;;5.97;;
10731;SDS011;5417;42.686;23.244;2023-01-25T06:16:58;6.03;;;5.43;;
10731;SDS011;5417;42.686;23.244;2023-01-25T06:19:27;7.27;;;6.60;;
10731;SDS011;5417;42.686;23.244;2023-01-25T06:21:54;7.00;;;6.43;;
10731;SDS011;5417;42.686;23.244;2023-01-25T06:24:21;6.77;;;6.17;;
10731;SDS011;5417;42.686;23.244;2023-01-25T06:26:48;7.80;;;7.00;;
10731;SDS011;5417;42.686;23.244;2023-01-25T06:29:15;8.53;;;6.60;;
10731;SDS011;5417;42.686;23.244;2023-01-25T06:31:42;7.20;;;6.60;;
10731;SDS011;5417;42.686;23.244;2023-01-25T06:34:09;7.20;;;6.50;;
10731;SDS011;5417;42.686;23.244;2023-01-25T06:36:37;6.20;;;5.70;;
10731;SDS011;5417;42.686;23.244;2023-01-25T06:39:04;7.10;;;6.40;;
10731;SDS011;5417;42.686;23.244;2023-01-25T06:41:31;6.03;;;5.53;;
10731;SDS011;5417;42.686;23.244;2023-01-25T06:43:57;7.17;;;6.57;;
10731;SDS011;5417;42.686;23.244;2023-01-25T06:46:24;4.43;;;4.13;;
10731;SDS011;5417;42.686;23.244;2023-01-25T06:48:51;3.77;;;3.47;;
10731;SDS011;5417;42.686;23.244;2023-01-25T06:51:18;3.57;;;3.37;;
10731;SDS011;5417;42.686;23.244;2023-01-25T06:53:47;3.60;;;3.30;;
10731;SDS011;5417;42.686;23.244;2023-01-25T06:56:15;4.10;;;3.20;;
10731;SDS011;5417;42.686;23.244;2023-01-25T06:58:45;4.33;;;3.67;;
10731;SDS011;5417;42.686;23.244;2023-01-25T07:01:13;6.63;;;6.03;;
10731;SDS011;5417;42.686;23.244;2023-01-25T07:03:42;4.67;;;4.37;;
10731;SDS011;5417;42.686;23.244;2023-01-25T07:06:10;5.10;;;4.67;;
10731;SDS011;5417;42.686;23.244;2023-01-25T07:08:37;6.57;;;5.97;;
10731;SDS011;5417;42.686;23.244;2023-01-25T07:11:06;4.27;;;3.90;;
10731;SDS011;5417;42.686;23.244;2023-01-25T07:13:38;4.23;;;3.93;;
10731;SDS011;5417;42.686;23.244;2023-01-25T07:16:06;5.10;;;4.70;;
10731;SDS011;5417;42.686;23.244;2023-01-25T07:18:36;5.53;;;5.00;;
10731;SDS011;5417;42.686;23.244;2023-01-25T07:21:04;5.67;;;5.10;;
10731;SDS011;5417;42.686;23.244;2023-01-25T07:23:32;6.77;;;5.47;;
10731;SDS011;5417;42.686;23.244;2023-01-25T07:26:02;6.20;;;5.60;;
10731;SDS011;5417;42.686;23.244;2023-01-25T07:28:31;5.30;;;4.90;;
10731;SDS011;5417;42.686;23.244;2023-01-25T07:31:02;6.47;;;5.90;;
10731;SDS011;5417;42.686;23.244;2023-01-25T07:33:31;4.47;;;4.17;;
10731;SDS011;5417;42.686;23.244;2023-01-25T07:35:58;4.50;;;4.20;;
10731;SDS011;5417;42.686;23.244;2023-01-25T07:38:26;4.77;;;4.43;;
10731;SDS011;5417;42.686;23.244;2023-01-25T07:40:52;5.47;;;4.97;;
10731;SDS011;5417;42.686;23.244;2023-01-25T07:43:20;5.20;;;4.80;;
10731;SDS011;5417;42.686;23.244;2023-01-25T07:45:49;5.15;;;4.75;;
10731;SDS011;5417;42.686;23.244;2023-01-25T07:48:18;5.03;;;4.63;;
10731;SDS011;5417;42.686;23.244;2023-01-25T07:50:46;4.83;;;4.50;;
10731;SDS011;5417;42.686;23.244;2023-01-25T07:53:13;4.50;;;4.20;;
10731;SDS011;5417;42.686;23.244;2023-01-25T07:55:41;4.43;;;4.13;;
10731;SDS011;5417;42.686;23.244;2023-01-25T07:58:09;4.43;;;4.07;;
10731;SDS011;5417;42.686;23.244;2023-01-25T08:00:36;4.57;;;4.17;;
10731;SDS011;5417;42.686;23.244;2023-01-25T08:03:04;3.70;;;3.50;;
10731;SDS011;5417;42.686;23.244;2023-01-25T08:05:32;4.40;;;4.10;;
10731;SDS011;5417;42.686;23.244;2023-01-25T08:07:59;4.90;;;4.40;;
10731;SDS011;5417;42.686;23.244;2023-01-25T08:10:26;4.00;;;3.80;;
10731;SDS011;5417;42.686;23.244;2023-01-25T08:12:54;3.97;;;3.67;;
10731;SDS011;5417;42.686;23.244;2023-01-25T08:15:21;4.23;;;3.93;;
10731;SDS011;5417;42.686;23.244;2023-01-25T08:17:51;4.50;;;4.20;;
10731;SDS011;5417;42.686;23.244;2023-01-25T08:20:22;5.07;;;4.67;;
10731;SDS011;5417;42.686;23.244;2023-01-25T08:22:50;6.60;;;6.00;;
10731;SDS011;5417;42.686;23.244;2023-01-25T08:25:19;7.17;;;6.47;;
10731;SDS011;5417;42.686;23.244;2023-01-25T08:27:47;6.83;;;6.27;;
10731;SDS011;5417;42.686;23.244;2023-01-25T08:30:16;7.03;;;6.53;;
10731;SDS011;5417;42.686;23.244;2023-01-25T08:32:43;6.73;;;6.13;;
10731;SDS011;5417;42.686;23.244;2023-01-25T08:35:10;7.47;;;6.33;;
10731;SDS011;5417;42.686;23.244;2023-01-25T08:37:38;7.33;;;6.67;;
10731;SDS011;5417;42.686;23.244;2023-01-25T08:40:05;7.57;;;6.87;;
10731;SDS011;5417;42.686;23.244;2023-01-25T08:42:33;7.17;;;6.60;;
10731;SDS011;5417;42.686;23.244;2023-01-25T08:45:00;8.17;;;7.47;;
10731;SDS011;5417;42.686;23.244;2023-01-25T08:47:28;8.57;;;7.60;;
10731;SDS011;5417;42.686;23.244;2023-01-25T08:49:55;8.70;;;7.83;;
10731;SDS011;5417;42.686;23.244;2023-01-25T08:52:22;8.90;;;7.60;;
10731;SDS011;5417;42.686;23.244;2023-01-25T08:54:50;8.00;;;7.20;;
10731;SDS011;5417;42.686;23.244;2023-01-25T08:57:17;9.10;;;8.40;;
10731;SDS011;5417;42.686;23.244;2023-01-25T08:59:45;8.97;;;8.17;;
10731;SDS011;5417;42.686;23.244;2023-01-25T09:02:13;8.63;;;7.73;;
10731;SDS011;5417;42.686;23.244;2023-01-25T09:04:39;7.80;;;7.10;;
10731;SDS011;5417;42.686;23.244;2023-01-25T09:07:07;8.17;;;7.40;;
10731;SDS011;5417;42.686;23.244;2023-01-25T09:09:34;8.17;;;7.30;;
10731;SDS011;5417;42.686;23.244;2023-01-25T09:12:02;9.23;;;7.10;;
10731;SDS011;5417;42.686;23.244;2023-01-25T09:14:29;8.67;;;7.87;;
10731;SDS011;5417;42.686;23.244;2023-01-25T09:16:56;7.90;;;6.73;;
10731;SDS011;5417;42.686;23.244;2023-01-25T09:19:23;7.97;;;7.27;;
10731;SDS011;5417;42.686;23.244;2023-01-25T09:21:50;7.97;;;7.27;;
10731;SDS011;5417;42.686;23.244;2023-01-25T09:24:17;7.37;;;6.70;;
10731;SDS011;5417;42.686;23.244;2023-01-25T09:26:44;11.20;;;7.40;;
10731;SDS011;5417;42.686;23.244;2023-01-25T09:29:16;7.73;;;7.10;;
10731;SDS011;5417;42.686;23.244;2023-01-25T09:31:47;7.73;;;7.13;;
10731;SDS011;5417;42.686;23.244;2023-01-25T09:36:52;6.90;;;6.40;;
10731;SDS011;5417;42.686;23.244;2023-01-25T09:39:20;9.87;;;7.50;;
10731;SDS011;5417;42.686;23.244;2023-01-25T09:41:57;8.50;;;7.80;;
10731;SDS011;5417;42.686;23.244;2023-01-25T09:44:51;7.77;;;7.07;;
10731;SDS011;5417;42.686;23.244;2023-01-25T09:47:28;7.60;;;6.90;;
10731;SDS011;5417;42.686;23.244;2023-01-25T09:53:09;6.77;;;6.27;;
10731;SDS011;5417;42.686;23.244;2023-01-25T09:55:50;7.00;;;6.50;;
10731;SDS011;5417;42.686;23.244;2023-01-25T09:58:19;7.63;;;6.93;;
10731;SDS011;5417;42.686;23.244;2023-01-25T10:00:53;7.47;;;6.87;;
10731;SDS011;5417;42.686;23.244;2023-01-25T10:03:30;7.17;;;6.60;;
10731;SDS011;5417;42.686;23.244;2023-01-25T10:06:04;7.70;;;6.90;;
10731;SDS011;5417;42.686;23.244;2023-01-25T10:08:37;8.27;;;7.50;;
10731;SDS011;5417;42.686;23.244;2023-01-25T10:11:12;6.57;;;5.97;;
10731;SDS011;5417;42.686;23.244;2023-01-25T10:13:46;6.13;;;5.63;;
10731;SDS011;5417;42.686;23.244;2023-01-25T10:16:16;5.67;;;5.27;;
10731;SDS011;5417;42.686;23.244;2023-01-25T10:18:51;5.97;;;5.43;;
10731;SDS011;5417;42.686;23.244;2023-01-25T10:21:27;6.20;;;5.70;;
10731;SDS011;5417;42.686;23.244;2023-01-25T10:27:11;6.23;;;5.60;;
10731;SDS011;5417;42.686;23.244;2023-01-25T10:30:03;5.60;;;5.20;;
10731;SDS011;5417;42.686;23.244;2023-01-25T10:32:50;5.40;;;5.00;;
10731;SDS011;5417;42.686;23.244;2023-01-25T10:35:25;6.13;;;5.73;;
10731;SDS011;5417;42.686;23.244;2023-01-25T10:38:04;5.70;;;5.20;;
10731;SDS011;5417;42.686;23.244;2023-01-25T10:40:45;5.53;;;5.13;;
10731;SDS011;5417;42.686;23.244;2023-01-25T10:43:25;6.07;;;5.63;;
10731;SDS011;5417;42.686;23.244;2023-01-25T10:45:58;5.83;;;5.33;;
10731;SDS011;5417;42.686;23.244;2023-01-25T10:48:31;6.73;;;6.23;;
10731;SDS011;5417;42.686;23.244;2023-01-25T10:51:00;5.20;;;4.90;;
10731;SDS011;5417;42.686;23.244;2023-01-25T10:53:29;5.07;;;4.60;;
10731;SDS011;5417;42.686;23.244;2023-01-25T10:56:02;6.80;;;6.30;;
10731;SDS011;5417;42.686;23.244;2023-01-25T10:58:45;5.57;;;5.07;;
10731;SDS011;5417;42.686;23.244;2023-01-25T11:01:23;5.60;;;5.20;;
10731;SDS011;5417;42.686;23.244;2023-01-25T11:03:54;5.70;;;5.30;;
10731;SDS011;5417;42.686;23.244;2023-01-25T11:06:29;5.33;;;4.93;;
10731;SDS011;5417;42.686;23.244;2023-01-25T11:08:58;5.10;;;4.70;;
10731;SDS011;5417;42.686;23.244;2023-01-25T11:11:29;5.00;;;4.60;;
10731;SDS011;5417;42.686;23.244;2023-01-25T11:14:00;4.70;;;4.40;;
10731;SDS011;5417;42.686;23.244;2023-01-25T11:16:29;7.87;;;5.10;;
10731;SDS011;5417;42.686;23.244;2023-01-25T11:19:00;4.73;;;4.43;;
10731;SDS011;5417;42.686;23.244;2023-01-25T11:21:50;4.90;;;4.50;;
10731;SDS011;5417;42.686;23.244;2023-01-25T11:24:17;5.37;;;5.03;;
10731;SDS011;5417;42.686;23.244;2023-01-25T11:26:51;5.20;;;4.90;;
10731;SDS011;5417;42.686;23.244;2023-01-25T11:29:38;4.83;;;4.53;;
10731;SDS011;5417;42.686;23.244;2023-01-25T11:32:13;4.63;;;4.33;;
10731;SDS011;5417;42.686;23.244;2023-01-25T11:34:47;4.73;;;4.40;;
10731;SDS011;5417;42.686;23.244;2023-01-25T11:37:21;5.20;;;4.70;;
10731;SDS011;5417;42.686;23.244;2023-01-25T11:40:03;4.83;;;4.43;;
10731;SDS011;5417;42.686;23.244;2023-01-25T11:42:40;5.20;;;4.80;;
10731;SDS011;5417;42.686;23.244;2023-01-25T11:45:32;5.73;;;5.23;;
10731;SDS011;5417;42.686;23.244;2023-01-25T11:48:15;5.23;;;4.73;;
10731;SDS011;5417;42.686;23.244;2023-01-25T11:51:24;5.20;;;4.90;;
10731;SDS011;5417;42.686;23.244;2023-01-25T11:54:26;4.67;;;4.37;;
10731;SDS011;5417;42.686;23.244;2023-01-25T11:57:23;4.93;;;4.60;;
10731;SDS011;5417;42.686;23.244;2023-01-25T12:00:28;5.47;;;5.00;;
10731;SDS011;5417;42.686;23.244;2023-01-25T12:03:32;4.77;;;4.47;;
10731;SDS011;5417;42.686;23.244;2023-01-25T12:06:31;4.37;;;4.07;;
10731;SDS011;5417;42.686;23.244;2023-01-25T12:09:07;4.57;;;4.27;;
10731;SDS011;5417;42.686;23.244;2023-01-25T12:11:49;5.33;;;4.93;;
10731;SDS011;5417;42.686;23.244;2023-01-25T12:14:28;5.43;;;5.03;;
10731;SDS011;5417;42.686;23.244;2023-01-25T12:17:13;5.53;;;4.90;;
10731;SDS011;5417;42.686;23.244;2023-01-25T12:20:03;5.00;;;4.67;;
10731;SDS011;5417;42.686;23.244;2023-01-25T12:22:57;6.50;;;5.90;;
10731;SDS011;5417;42.686;23.244;2023-01-25T12:25:38;5.73;;;5.33;;
10731;SDS011;5417;42.686;23.244;2023-01-25T12:28:18;4.93;;;4.53;;
10731;SDS011;5417;42.686;23.244;2023-01-25T12:30:50;5.70;;;5.30;;
10731;SDS011;5417;42.686;23.244;2023-01-25T12:33:24;5.13;;;4.80;;
10731;SDS011;5417;42.686;23.244;2023-01-25T12:35:58;6.23;;;5.70;;
10731;SDS011;5417;42.686;23.244;2023-01-25T12:38:34;4.60;;;4.30;;
10731;SDS011;5417;42.686;23.244;2023-01-25T12:41:06;5.03;;;4.63;;
10731;SDS011;5417;42.686;23.244;2023-01-25T12:43:45;5.37;;;4.87;;
10731;SDS011;5417;42.686;23.244;2023-01-25T12:46:20;4.80;;;4.50;;
10731;SDS011;5417;42.686;23.244;2023-01-25T12:48:52;5.07;;;4.73;;
10731;SDS011;5417;42.686;23.244;2023-01-25T12:51:24;4.83;;;4.40;;
10731;SDS011;5417;42.686;23.244;2023-01-25T12:54:00;4.90;;;4.40;;
10731;SDS011;5417;42.686;23.244;2023-01-25T12:56:35;4.23;;;3.93;;
10731;SDS011;5417;42.686;23.244;2023-01-25T12:59:12;4.07;;;3.83;;
10731;SDS011;5417;42.686;23.244;2023-01-25T13:01:44;4.03;;;3.67;;
10731;SDS011;5417;42.686;23.244;2023-01-25T13:04:24;3.77;;;3.57;;
10731;SDS011;5417;42.686;23.244;2023-01-25T13:07:02;4.67;;;4.40;;
10731;SDS011;5417;42.686;23.244;2023-01-25T13:09:44;4.60;;;3.97;;
10731;SDS011;5417;42.686;23.244;2023-01-25T13:12:22;5.73;;;3.73;;
10731;SDS011;5417;42.686;23.244;2023-01-25T13:14:49;4.00;;;3.57;;
10731;SDS011;5417;42.686;23.244;2023-01-25T13:17:21;4.10;;;3.90;;
10731;SDS011;5417;42.686;23.244;2023-01-25T13:20:10;4.20;;;3.90;;
10731;SDS011;5417;42.686;23.244;2023-01-25T13:22:54;5.77;;;5.20;;
10731;SDS011;5417;42.686;23.244;2023-01-25T13:25:32;4.33;;;4.03;;
10731;SDS011;5417;42.686;23.244;2023-01-25T13:31:11;4.77;;;4.47;;
10731;SDS011;5417;42.686;23.244;2023-01-25T13:37:24;4.13;;;3.90;;
10731;SDS011;5417;42.686;23.244;2023-01-25T13:39:54;4.33;;;4.03;;
10731;SDS011;5417;42.686;23.244;2023-01-25T13:42:23;5.70;;;5.30;;
10731;SDS011;5417;42.686;23.244;2023-01-25T13:44:53;4.77;;;4.40;;
10731;SDS011;5417;42.686;23.244;2023-01-25T13:47:23;5.80;;;4.47;;
10731;SDS011;5417;42.686;23.244;2023-01-25T13:49:53;5.03;;;4.73;;
10731;SDS011;5417;42.686;23.244;2023-01-25T13:52:25;5.20;;;4.80;;
10731;SDS011;5417;42.686;23.244;2023-01-25T13:54:55;4.43;;;4.13;;
10731;SDS011;5417;42.686;23.244;2023-01-25T13:57:25;4.50;;;4.20;;
10731;SDS011;5417;42.686;23.244;2023-01-25T13:59:57;4.67;;;4.37;;
10731;SDS011;5417;42.686;23.244;2023-01-25T14:02:29;5.07;;;4.77;;
10731;SDS011;5417;42.686;23.244;2023-01-25T14:04:57;5.23;;;4.80;;
10731;SDS011;5417;42.686;23.244;2023-01-25T14:07:28;4.97;;;4.57;;
10731;SDS011;5417;42.686;23.244;2023-01-25T14:10:05;5.60;;;5.13;;
10731;SDS011;5417;42.686;23.244;2023-01-25T14:12:50;5.30;;;4.90;;
10731;SDS011;5417;42.686;23.244;2023-01-25T14:15:22;4.87;;;4.57;;
10731;SDS011;5417;42.686;23.244;2023-01-25T14:20:46;5.47;;;5.07;;
10731;SDS011;5417;42.686;23.244;2023-01-25T14:23:23;6.43;;;5.90;;
10731;SDS011;5417;42.686;23.244;2023-01-25T14:25:54;6.00;;;5.60;;
10731;SDS011;5417;42.686;23.244;2023-01-25T14:28:25;6.17;;;5.77;;
10731;SDS011;5417;42.686;23.244;2023-01-25T14:30:54;6.73;;;6.23;;
10731;SDS011;5417;42.686;23.244;2023-01-25T14:33:24;7.43;;;6.83;;
10731;SDS011;5417;42.686;23.244;2023-01-25T14:35:53;7.10;;;6.50;;
10731;SDS011;5417;42.686;23.244;2023-01-25T14:38:23;7.77;;;6.60;;
10731;SDS011;5417;42.686;23.244;2023-01-25T14:40:58;19.93;;;12.03;;
10731;SDS011;5417;42.686;23.244;2023-01-25T14:43:30;6.53;;;6.03;;
10731;SDS011;5417;42.686;23.244;2023-01-25T14:45:58;6.57;;;6.07;;
10731;SDS011;5417;42.686;23.244;2023-01-25T14:48:34;9.37;;;8.30;;
10731;SDS011;5417;42.686;23.244;2023-01-25T14:51:03;7.30;;;6.60;;
10731;SDS011;5417;42.686;23.244;2023-01-25T14:53:37;7.87;;;6.67;;
10731;SDS011;5417;42.686;23.244;2023-01-25T14:56:12;9.53;;;7.13;;
10731;SDS011;5417;42.686;23.244;2023-01-25T14:58:53;7.13;;;6.57;;
10731;SDS011;5417;42.686;23.244;2023-01-25T15:01:26;6.73;;;6.23;;
10731;SDS011;5417;42.686;23.244;2023-01-25T15:03:57;6.77;;;6.23;;
10731;SDS011;5417;42.686;23.244;2023-01-25T15:06:25;6.90;;;6.23;;
10731;SDS011;5417;42.686;23.244;2023-01-25T15:08:52;6.77;;;6.27;;
10731;SDS011;5417;42.686;23.244;2023-01-25T15:11:26;6.40;;;5.80;;
10731;SDS011;5417;42.686;23.244;2023-01-25T15:14:11;6.73;;;6.13;;
10731;SDS011;5417;42.686;23.244;2023-01-25T15:16:41;6.40;;;5.90;;
10731;SDS011;5417;42.686;23.244;2023-01-25T15:19:19;6.50;;;5.97;;
10731;SDS011;5417;42.686;23.244;2023-01-25T15:21:48;7.70;;;7.00;;
10731;SDS011;5417;42.686;23.244;2023-01-25T15:24:15;6.00;;;5.50;;
10731;SDS011;5417;42.686;23.244;2023-01-25T15:26:47;6.97;;;6.33;;
10731;SDS011;5417;42.686;23.244;2023-01-25T15:29:17;6.07;;;5.57;;
10731;SDS011;5417;42.686;23.244;2023-01-25T15:31:46;6.73;;;6.13;;
10731;SDS011;5417;42.686;23.244;2023-01-25T15:34:16;6.17;;;5.67;;
10731;SDS011;5417;42.686;23.244;2023-01-25T15:36:44;6.03;;;5.63;;
10731;SDS011;5417;42.686;23.244;2023-01-25T15:39:12;5.97;;;5.53;;
10731;SDS011;5417;42.686;23.244;2023-01-25T15:41:40;5.97;;;5.47;;